sensor_id;sensor_type;location;lat;lon;timestamp;P1;durP1;ratioP1;P2;durP2;ratioP2
32505;SDS011;18955;51.224;8.482;2023-05-07T00:00:58;2.83;;;1.80;;
32505;SDS011;18955;51.224;8.482;2023-05-07T00:03:25;5.72;;;1.70;;
32505;SDS011;18955;51.224;8.482;2023-05-07T00:08:18;4.03;;;1.70;;
32505;SDS011;18955;51.224;8.482;2023-05-07T00:10:45;1.83;;;1.60;;
32505;SDS011;18955;51.224;8.482;2023-05-07T00:13:12;3.40;;;1.98;;
32505;SDS011;18955;51.224;8.482;2023-05-07T00:15:38;4.43;;;1.88;;
32505;SDS011;18955;51.224;8.482;2023-05-07T00:18:04;3.83;;;1.88;;
32505;SDS011;18955;51.224;8.482;2023-05-07T00:20:31;2.20;;;2.00;;
32505;SDS011;18955;51.224;8.482;2023-05-07T00:22:57;4.30;;;2.10;;
32505;SDS011;18955;51.224;8.482;2023-05-07T00:25:23;2.65;;;1.77;;
32505;SDS011;18955;51.224;8.482;2023-05-07T00:27:49;4.25;;;1.85;;
32505;SDS011;18955;51.224;8.482;2023-05-07T00:30:15;1.73;;;1.33;;
32505;SDS011;18955;51.224;8.482;2023-05-07T00:32:42;16.38;;;2.03;;
32505;SDS011;18955;51.224;8.482;2023-05-07T00:35:10;4.80;;;1.90;;
32505;SDS011;18955;51.224;8.482;2023-05-07T00:40:03;3.75;;;2.03;;
32505;SDS011;18955;51.224;8.482;2023-05-07T00:42:32;3.20;;;2.28;;
32505;SDS011;18955;51.224;8.482;2023-05-07T00:44:59;2.22;;;1.60;;
32505;SDS011;18955;51.224;8.482;2023-05-07T00:49:51;8.90;;;2.70;;
32505;SDS011;18955;51.224;8.482;2023-05-07T00:52:18;2.22;;;1.77;;
32505;SDS011;18955;51.224;8.482;2023-05-07T00:54:47;5.28;;;2.05;;
32505;SDS011;18955;51.224;8.482;2023-05-07T00:57:13;4.82;;;2.25;;
32505;SDS011;18955;51.224;8.482;2023-05-07T00:59:41;4.80;;;2.40;;
32505;SDS011;18955;51.224;8.482;2023-05-07T01:02:07;3.80;;;2.28;;
32505;SDS011;18955;51.224;8.482;2023-05-07T01:04:33;3.20;;;2.58;;
32505;SDS011;18955;51.224;8.482;2023-05-07T01:06:59;2.92;;;1.98;;
32505;SDS011;18955;51.224;8.482;2023-05-07T01:09:27;3.63;;;2.05;;
32505;SDS011;18955;51.224;8.482;2023-05-07T01:11:54;5.00;;;2.85;;
32505;SDS011;18955;51.224;8.482;2023-05-07T01:14:23;4.20;;;2.08;;
32505;SDS011;18955;51.224;8.482;2023-05-07T01:16:50;2.85;;;1.75;;
32505;SDS011;18955;51.224;8.482;2023-05-07T01:19:18;5.05;;;1.92;;
32505;SDS011;18955;51.224;8.482;2023-05-07T01:21:46;5.53;;;2.40;;
32505;SDS011;18955;51.224;8.482;2023-05-07T01:24:15;2.17;;;1.98;;
32505;SDS011;18955;51.224;8.482;2023-05-07T01:26:43;8.20;;;2.38;;
32505;SDS011;18955;51.224;8.482;2023-05-07T01:29:12;3.00;;;2.03;;
32505;SDS011;18955;51.224;8.482;2023-05-07T01:31:39;4.88;;;2.55;;
32505;SDS011;18955;51.224;8.482;2023-05-07T01:34:07;4.38;;;2.53;;
32505;SDS011;18955;51.224;8.482;2023-05-07T01:36:36;3.92;;;2.45;;
32505;SDS011;18955;51.224;8.482;2023-05-07T01:39:03;3.22;;;2.83;;
32505;SDS011;18955;51.224;8.482;2023-05-07T01:41:31;3.33;;;2.88;;
32505;SDS011;18955;51.224;8.482;2023-05-07T01:43:58;3.50;;;2.90;;
32505;SDS011;18955;51.224;8.482;2023-05-07T01:46:26;3.63;;;2.88;;
32505;SDS011;18955;51.224;8.482;2023-05-07T01:48:53;5.93;;;2.88;;
32505;SDS011;18955;51.224;8.482;2023-05-07T01:51:19;3.40;;;2.20;;
32505;SDS011;18955;51.224;8.482;2023-05-07T01:53:47;5.15;;;3.10;;
32505;SDS011;18955;51.224;8.482;2023-05-07T01:56:17;6.30;;;2.92;;
32505;SDS011;18955;51.224;8.482;2023-05-07T01:58:44;4.75;;;3.05;;
32505;SDS011;18955;51.224;8.482;2023-05-07T02:01:12;9.00;;;2.90;;
32505;SDS011;18955;51.224;8.482;2023-05-07T02:03:40;6.28;;;3.03;;
32505;SDS011;18955;51.224;8.482;2023-05-07T02:06:13;5.25;;;2.92;;
32505;SDS011;18955;51.224;8.482;2023-05-07T02:08:39;8.82;;;2.92;;
32505;SDS011;18955;51.224;8.482;2023-05-07T02:11:06;9.57;;;3.30;;
32505;SDS011;18955;51.224;8.482;2023-05-07T02:13:33;5.00;;;3.08;;
32505;SDS011;18955;51.224;8.482;2023-05-07T02:16:00;6.25;;;3.40;;
32505;SDS011;18955;51.224;8.482;2023-05-07T02:18:28;9.27;;;3.55;;
32505;SDS011;18955;51.224;8.482;2023-05-07T02:23:21;8.32;;;3.47;;
32505;SDS011;18955;51.224;8.482;2023-05-07T02:25:47;6.05;;;3.20;;
32505;SDS011;18955;51.224;8.482;2023-05-07T02:28:13;2.60;;;2.30;;
32505;SDS011;18955;51.224;8.482;2023-05-07T02:30:48;6.28;;;3.95;;
32505;SDS011;18955;51.224;8.482;2023-05-07T02:33:15;7.95;;;3.80;;
32505;SDS011;18955;51.224;8.482;2023-05-07T02:35:41;5.32;;;4.05;;
32505;SDS011;18955;51.224;8.482;2023-05-07T02:38:09;4.75;;;3.60;;
32505;SDS011;18955;51.224;8.482;2023-05-07T02:40:37;8.35;;;3.60;;
32505;SDS011;18955;51.224;8.482;2023-05-07T02:43:06;8.35;;;3.92;;
32505;SDS011;18955;51.224;8.482;2023-05-07T02:45:33;11.50;;;3.53;;
32505;SDS011;18955;51.224;8.482;2023-05-07T02:48:00;5.78;;;3.92;;
32505;SDS011;18955;51.224;8.482;2023-05-07T02:50:27;9.95;;;4.25;;
32505;SDS011;18955;51.224;8.482;2023-05-07T02:52:53;5.07;;;4.00;;
32505;SDS011;18955;51.224;8.482;2023-05-07T02:55:20;5.38;;;4.30;;
32505;SDS011;18955;51.224;8.482;2023-05-07T02:57:47;7.57;;;5.10;;
32505;SDS011;18955;51.224;8.482;2023-05-07T03:00:13;5.28;;;3.20;;
32505;SDS011;18955;51.224;8.482;2023-05-07T03:02:48;5.78;;;4.53;;
32505;SDS011;18955;51.224;8.482;2023-05-07T03:05:14;6.10;;;4.85;;
32505;SDS011;18955;51.224;8.482;2023-05-07T03:07:41;7.97;;;4.97;;
32505;SDS011;18955;51.224;8.482;2023-05-07T03:10:11;7.22;;;4.88;;
32505;SDS011;18955;51.224;8.482;2023-05-07T03:12:37;7.55;;;5.60;;
32505;SDS011;18955;51.224;8.482;2023-05-07T03:15:04;7.60;;;5.22;;
32505;SDS011;18955;51.224;8.482;2023-05-07T03:17:30;8.75;;;5.40;;
32505;SDS011;18955;51.224;8.482;2023-05-07T03:19:57;8.55;;;5.05;;
32505;SDS011;18955;51.224;8.482;2023-05-07T03:22:23;12.10;;;5.38;;
32505;SDS011;18955;51.224;8.482;2023-05-07T03:24:50;8.88;;;5.68;;
32505;SDS011;18955;51.224;8.482;2023-05-07T03:27:16;8.75;;;5.55;;
32505;SDS011;18955;51.224;8.482;2023-05-07T03:29:43;7.80;;;5.68;;
32505;SDS011;18955;51.224;8.482;2023-05-07T03:32:09;6.18;;;5.07;;
32505;SDS011;18955;51.224;8.482;2023-05-07T03:34:35;7.82;;;5.63;;
32505;SDS011;18955;51.224;8.482;2023-05-07T03:37:02;11.90;;;6.60;;
32505;SDS011;18955;51.224;8.482;2023-05-07T03:39:28;8.25;;;6.82;;
32505;SDS011;18955;51.224;8.482;2023-05-07T03:41:54;7.38;;;6.22;;
32505;SDS011;18955;51.224;8.482;2023-05-07T03:44:20;6.65;;;5.95;;
32505;SDS011;18955;51.224;8.482;2023-05-07T03:46:49;7.85;;;6.40;;
32505;SDS011;18955;51.224;8.482;2023-05-07T03:49:15;8.27;;;7.32;;
32505;SDS011;18955;51.224;8.482;2023-05-07T03:51:42;8.98;;;6.43;;
32505;SDS011;18955;51.224;8.482;2023-05-07T03:54:08;8.80;;;6.90;;
32505;SDS011;18955;51.224;8.482;2023-05-07T03:56:36;7.35;;;6.57;;
32505;SDS011;18955;51.224;8.482;2023-05-07T03:59:02;6.65;;;5.85;;
32505;SDS011;18955;51.224;8.482;2023-05-07T04:01:28;11.32;;;7.88;;
32505;SDS011;18955;51.224;8.482;2023-05-07T04:03:56;13.35;;;8.18;;
32505;SDS011;18955;51.224;8.482;2023-05-07T04:06:22;10.82;;;8.25;;
32505;SDS011;18955;51.224;8.482;2023-05-07T04:08:49;10.00;;;8.40;;
32505;SDS011;18955;51.224;8.482;2023-05-07T04:11:15;10.40;;;8.82;;
32505;SDS011;18955;51.224;8.482;2023-05-07T04:13:42;11.50;;;8.48;;
32505;SDS011;18955;51.224;8.482;2023-05-07T04:16:09;10.57;;;8.95;;
32505;SDS011;18955;51.224;8.482;2023-05-07T04:18:37;12.73;;;9.25;;
32505;SDS011;18955;51.224;8.482;2023-05-07T04:23:30;12.50;;;9.20;;
32505;SDS011;18955;51.224;8.482;2023-05-07T04:26:00;12.07;;;9.48;;
32505;SDS011;18955;51.224;8.482;2023-05-07T04:28:38;12.98;;;10.30;;
32505;SDS011;18955;51.224;8.482;2023-05-07T04:31:05;14.48;;;10.18;;
32505;SDS011;18955;51.224;8.482;2023-05-07T04:33:33;12.45;;;9.52;;
32505;SDS011;18955;51.224;8.482;2023-05-07T04:36:03;13.10;;;10.90;;
32505;SDS011;18955;51.224;8.482;2023-05-07T04:38:33;12.82;;;11.27;;
32505;SDS011;18955;51.224;8.482;2023-05-07T04:41:04;15.82;;;10.93;;
32505;SDS011;18955;51.224;8.482;2023-05-07T04:43:34;16.25;;;12.05;;
32505;SDS011;18955;51.224;8.482;2023-05-07T04:46:01;13.98;;;11.82;;
32505;SDS011;18955;51.224;8.482;2023-05-07T04:48:28;17.65;;;11.43;;
32505;SDS011;18955;51.224;8.482;2023-05-07T04:50:55;13.35;;;11.40;;
32505;SDS011;18955;51.224;8.482;2023-05-07T04:53:21;17.55;;;13.02;;
32505;SDS011;18955;51.224;8.482;2023-05-07T04:55:54;15.02;;;12.93;;
32505;SDS011;18955;51.224;8.482;2023-05-07T04:58:23;13.93;;;12.10;;
32505;SDS011;18955;51.224;8.482;2023-05-07T05:03:15;16.67;;;13.38;;
32505;SDS011;18955;51.224;8.482;2023-05-07T05:05:42;18.40;;;14.30;;
32505;SDS011;18955;51.224;8.482;2023-05-07T05:08:08;17.70;;;14.10;;
32505;SDS011;18955;51.224;8.482;2023-05-07T05:10:37;12.13;;;9.82;;
32505;SDS011;18955;51.224;8.482;2023-05-07T05:13:05;17.08;;;13.70;;
32505;SDS011;18955;51.224;8.482;2023-05-07T05:15:31;15.85;;;13.48;;
32505;SDS011;18955;51.224;8.482;2023-05-07T05:17:57;15.73;;;13.52;;
32505;SDS011;18955;51.224;8.482;2023-05-07T05:20:24;16.98;;;13.95;;
32505;SDS011;18955;51.224;8.482;2023-05-07T05:22:50;18.10;;;13.57;;
32505;SDS011;18955;51.224;8.482;2023-05-07T05:25:16;25.00;;;15.40;;
32505;SDS011;18955;51.224;8.482;2023-05-07T05:27:42;17.70;;;15.05;;
32505;SDS011;18955;51.224;8.482;2023-05-07T05:30:09;19.73;;;15.05;;
32505;SDS011;18955;51.224;8.482;2023-05-07T05:32:36;19.05;;;14.50;;
32505;SDS011;18955;51.224;8.482;2023-05-07T05:35:02;20.23;;;15.68;;
32505;SDS011;18955;51.224;8.482;2023-05-07T05:37:29;17.63;;;15.25;;
32505;SDS011;18955;51.224;8.482;2023-05-07T05:39:58;20.60;;;15.30;;
32505;SDS011;18955;51.224;8.482;2023-05-07T05:42:26;20.60;;;15.82;;
32505;SDS011;18955;51.224;8.482;2023-05-07T05:44:53;17.58;;;15.38;;
32505;SDS011;18955;51.224;8.482;2023-05-07T05:47:20;19.58;;;15.02;;
32505;SDS011;18955;51.224;8.482;2023-05-07T05:49:47;18.48;;;14.25;;
32505;SDS011;18955;51.224;8.482;2023-05-07T05:52:15;18.63;;;15.05;;
32505;SDS011;18955;51.224;8.482;2023-05-07T05:54:43;17.92;;;14.98;;
32505;SDS011;18955;51.224;8.482;2023-05-07T05:57:10;20.42;;;15.70;;
32505;SDS011;18955;51.224;8.482;2023-05-07T05:59:36;21.88;;;14.77;;
32505;SDS011;18955;51.224;8.482;2023-05-07T06:02:03;18.38;;;14.55;;
32505;SDS011;18955;51.224;8.482;2023-05-07T06:04:29;14.55;;;10.88;;
32505;SDS011;18955;51.224;8.482;2023-05-07T06:06:56;21.45;;;15.55;;
32505;SDS011;18955;51.224;8.482;2023-05-07T06:09:23;18.85;;;14.95;;
32505;SDS011;18955;51.224;8.482;2023-05-07T06:11:50;23.58;;;15.20;;
32505;SDS011;18955;51.224;8.482;2023-05-07T06:14:16;20.42;;;16.35;;
32505;SDS011;18955;51.224;8.482;2023-05-07T06:16:43;19.70;;;16.00;;
32505;SDS011;18955;51.224;8.482;2023-05-07T06:19:10;20.00;;;15.52;;
32505;SDS011;18955;51.224;8.482;2023-05-07T06:21:38;21.38;;;16.27;;
32505;SDS011;18955;51.224;8.482;2023-05-07T06:24:06;21.40;;;16.35;;
32505;SDS011;18955;51.224;8.482;2023-05-07T06:26:32;23.40;;;15.30;;
32505;SDS011;18955;51.224;8.482;2023-05-07T06:28:59;24.20;;;16.85;;
32505;SDS011;18955;51.224;8.482;2023-05-07T06:31:28;21.55;;;17.10;;
32505;SDS011;18955;51.224;8.482;2023-05-07T06:34:01;21.55;;;16.98;;
32505;SDS011;18955;51.224;8.482;2023-05-07T06:36:33;24.50;;;17.10;;
32505;SDS011;18955;51.224;8.482;2023-05-07T06:39:04;23.95;;;18.63;;
32505;SDS011;18955;51.224;8.482;2023-05-07T06:41:30;24.10;;;19.00;;
32505;SDS011;18955;51.224;8.482;2023-05-07T06:44:02;24.00;;;18.52;;
32505;SDS011;18955;51.224;8.482;2023-05-07T06:46:35;24.55;;;17.83;;
32505;SDS011;18955;51.224;8.482;2023-05-07T06:49:02;23.27;;;17.83;;
32505;SDS011;18955;51.224;8.482;2023-05-07T06:51:28;24.50;;;18.88;;
32505;SDS011;18955;51.224;8.482;2023-05-07T06:53:59;22.98;;;16.95;;
32505;SDS011;18955;51.224;8.482;2023-05-07T06:56:25;24.40;;;17.95;;
32505;SDS011;18955;51.224;8.482;2023-05-07T06:58:51;23.10;;;19.33;;
32505;SDS011;18955;51.224;8.482;2023-05-07T07:01:18;17.98;;;14.43;;
32505;SDS011;18955;51.224;8.482;2023-05-07T07:03:44;25.85;;;18.00;;
32505;SDS011;18955;51.224;8.482;2023-05-07T07:06:10;23.80;;;17.65;;
32505;SDS011;18955;51.224;8.482;2023-05-07T07:08:37;18.13;;;13.80;;
32505;SDS011;18955;51.224;8.482;2023-05-07T07:11:05;24.08;;;18.92;;
32505;SDS011;18955;51.224;8.482;2023-05-07T07:13:31;22.33;;;17.48;;
32505;SDS011;18955;51.224;8.482;2023-05-07T07:15:58;23.38;;;17.75;;
32505;SDS011;18955;51.224;8.482;2023-05-07T07:18:25;24.60;;;17.92;;
32505;SDS011;18955;51.224;8.482;2023-05-07T07:20:52;23.80;;;18.10;;
32505;SDS011;18955;51.224;8.482;2023-05-07T07:23:19;25.95;;;17.17;;
32505;SDS011;18955;51.224;8.482;2023-05-07T07:25:45;26.63;;;20.33;;
32505;SDS011;18955;51.224;8.482;2023-05-07T07:28:12;27.10;;;18.90;;
32505;SDS011;18955;51.224;8.482;2023-05-07T07:30:39;27.20;;;19.70;;
32505;SDS011;18955;51.224;8.482;2023-05-07T07:33:05;26.27;;;17.80;;
32505;SDS011;18955;51.224;8.482;2023-05-07T07:35:35;26.30;;;18.80;;
32505;SDS011;18955;51.224;8.482;2023-05-07T07:38:03;26.83;;;19.55;;
32505;SDS011;18955;51.224;8.482;2023-05-07T07:40:29;25.02;;;18.23;;
32505;SDS011;18955;51.224;8.482;2023-05-07T07:42:56;26.55;;;18.00;;
32505;SDS011;18955;51.224;8.482;2023-05-07T07:45:22;23.02;;;17.98;;
32505;SDS011;18955;51.224;8.482;2023-05-07T07:47:50;23.48;;;17.80;;
32505;SDS011;18955;51.224;8.482;2023-05-07T07:50:16;16.67;;;13.38;;
32505;SDS011;18955;51.224;8.482;2023-05-07T07:52:43;27.77;;;18.15;;
32505;SDS011;18955;51.224;8.482;2023-05-07T07:55:13;25.30;;;18.77;;
32505;SDS011;18955;51.224;8.482;2023-05-07T07:57:44;26.38;;;19.92;;
32505;SDS011;18955;51.224;8.482;2023-05-07T08:00:10;25.17;;;19.13;;
32505;SDS011;18955;51.224;8.482;2023-05-07T08:02:42;27.92;;;20.23;;
32505;SDS011;18955;51.224;8.482;2023-05-07T08:05:11;27.33;;;19.65;;
32505;SDS011;18955;51.224;8.482;2023-05-07T08:07:37;18.52;;;14.07;;
32505;SDS011;18955;51.224;8.482;2023-05-07T08:10:04;31.23;;;18.95;;
32505;SDS011;18955;51.224;8.482;2023-05-07T08:12:31;28.30;;;20.77;;
32505;SDS011;18955;51.224;8.482;2023-05-07T08:17:24;28.05;;;20.33;;
32505;SDS011;18955;51.224;8.482;2023-05-07T08:19:51;31.83;;;20.08;;
32505;SDS011;18955;51.224;8.482;2023-05-07T08:22:17;28.17;;;20.70;;
32505;SDS011;18955;51.224;8.482;2023-05-07T08:27:11;28.02;;;21.50;;
32505;SDS011;18955;51.224;8.482;2023-05-07T08:29:40;31.38;;;21.45;;
32505;SDS011;18955;51.224;8.482;2023-05-07T08:32:07;29.60;;;22.13;;
32505;SDS011;18955;51.224;8.482;2023-05-07T08:34:33;39.15;;;22.27;;
32505;SDS011;18955;51.224;8.482;2023-05-07T08:37:03;30.05;;;22.00;;
32505;SDS011;18955;51.224;8.482;2023-05-07T08:39:30;32.88;;;21.58;;
32505;SDS011;18955;51.224;8.482;2023-05-07T08:41:56;29.35;;;21.23;;
32505;SDS011;18955;51.224;8.482;2023-05-07T08:44:28;26.17;;;17.58;;
32505;SDS011;18955;51.224;8.482;2023-05-07T08:46:59;29.38;;;21.17;;
32505;SDS011;18955;51.224;8.482;2023-05-07T08:49:28;29.70;;;19.65;;
32505;SDS011;18955;51.224;8.482;2023-05-07T08:51:54;27.17;;;19.70;;
32505;SDS011;18955;51.224;8.482;2023-05-07T08:56:48;26.95;;;19.23;;
32505;SDS011;18955;51.224;8.482;2023-05-07T09:01:42;26.08;;;19.40;;
32505;SDS011;18955;51.224;8.482;2023-05-07T09:04:09;32.35;;;21.33;;
32505;SDS011;18955;51.224;8.482;2023-05-07T09:06:36;27.20;;;20.70;;
32505;SDS011;18955;51.224;8.482;2023-05-07T09:09:08;28.45;;;20.92;;
32505;SDS011;18955;51.224;8.482;2023-05-07T09:11:35;29.67;;;21.25;;
32505;SDS011;18955;51.224;8.482;2023-05-07T09:14:01;29.30;;;19.13;;
32505;SDS011;18955;51.224;8.482;2023-05-07T09:16:32;26.48;;;19.75;;
32505;SDS011;18955;51.224;8.482;2023-05-07T09:19:00;27.33;;;19.15;;
32505;SDS011;18955;51.224;8.482;2023-05-07T09:21:27;29.98;;;19.85;;
32505;SDS011;18955;51.224;8.482;2023-05-07T09:23:55;27.55;;;20.73;;
32505;SDS011;18955;51.224;8.482;2023-05-07T09:26:28;29.70;;;21.17;;
32505;SDS011;18955;51.224;8.482;2023-05-07T09:28:55;27.52;;;19.98;;
32505;SDS011;18955;51.224;8.482;2023-05-07T09:31:21;26.10;;;19.48;;
32505;SDS011;18955;51.224;8.482;2023-05-07T09:33:49;34.55;;;21.48;;
32505;SDS011;18955;51.224;8.482;2023-05-07T09:36:17;28.17;;;19.77;;
32505;SDS011;18955;51.224;8.482;2023-05-07T09:38:44;33.15;;;21.77;;
32505;SDS011;18955;51.224;8.482;2023-05-07T09:41:12;34.13;;;21.25;;
32505;SDS011;18955;51.224;8.482;2023-05-07T09:44:01;29.35;;;20.90;;
32505;SDS011;18955;51.224;8.482;2023-05-07T09:46:36;33.55;;;22.45;;
32505;SDS011;18955;51.224;8.482;2023-05-07T09:49:10;29.58;;;20.63;;
32505;SDS011;18955;51.224;8.482;2023-05-07T09:51:49;31.08;;;19.88;;
32505;SDS011;18955;51.224;8.482;2023-05-07T09:54:18;31.90;;;21.65;;
32505;SDS011;18955;51.224;8.482;2023-05-07T09:56:48;29.77;;;21.25;;
32505;SDS011;18955;51.224;8.482;2023-05-07T09:59:16;28.33;;;20.35;;
32505;SDS011;18955;51.224;8.482;2023-05-07T10:01:44;29.10;;;20.48;;
32505;SDS011;18955;51.224;8.482;2023-05-07T10:04:12;20.08;;;15.40;;
32505;SDS011;18955;51.224;8.482;2023-05-07T10:06:41;26.83;;;20.35;;
32505;SDS011;18955;51.224;8.482;2023-05-07T10:09:10;30.08;;;20.23;;
32505;SDS011;18955;51.224;8.482;2023-05-07T10:11:38;28.95;;;20.15;;
32505;SDS011;18955;51.224;8.482;2023-05-07T10:14:06;33.55;;;21.77;;
32505;SDS011;18955;51.224;8.482;2023-05-07T10:16:34;30.95;;;20.98;;
32505;SDS011;18955;51.224;8.482;2023-05-07T10:19:04;29.15;;;19.23;;
32505;SDS011;18955;51.224;8.482;2023-05-07T10:21:36;29.30;;;19.63;;
32505;SDS011;18955;51.224;8.482;2023-05-07T10:26:40;28.77;;;18.75;;
32505;SDS011;18955;51.224;8.482;2023-05-07T10:29:18;27.27;;;20.10;;
32505;SDS011;18955;51.224;8.482;2023-05-07T10:31:55;27.70;;;17.40;;
32505;SDS011;18955;51.224;8.482;2023-05-07T10:34:43;23.77;;;17.98;;
32505;SDS011;18955;51.224;8.482;2023-05-07T10:37:12;25.10;;;17.23;;
32505;SDS011;18955;51.224;8.482;2023-05-07T10:39:39;26.20;;;18.35;;
32505;SDS011;18955;51.224;8.482;2023-05-07T10:42:07;25.52;;;17.75;;
32505;SDS011;18955;51.224;8.482;2023-05-07T10:44:35;27.67;;;18.38;;
32505;SDS011;18955;51.224;8.482;2023-05-07T10:47:09;26.20;;;17.95;;
32505;SDS011;18955;51.224;8.482;2023-05-07T10:52:21;22.58;;;15.90;;
32505;SDS011;18955;51.224;8.482;2023-05-07T10:58:24;24.23;;;16.73;;
32505;SDS011;18955;51.224;8.482;2023-05-07T11:01:14;24.40;;;17.65;;
32505;SDS011;18955;51.224;8.482;2023-05-07T11:15:13;22.27;;;17.05;;
32505;SDS011;18955;51.224;8.482;2023-05-07T11:17:52;22.75;;;16.52;;
32505;SDS011;18955;51.224;8.482;2023-05-07T11:20:20;24.23;;;15.82;;
32505;SDS011;18955;51.224;8.482;2023-05-07T11:22:53;22.67;;;12.48;;
32505;SDS011;18955;51.224;8.482;2023-05-07T11:25:42;20.85;;;14.82;;
32505;SDS011;18955;51.224;8.482;2023-05-07T11:28:15;20.95;;;14.90;;
32505;SDS011;18955;51.224;8.482;2023-05-07T11:30:53;19.17;;;14.57;;
32505;SDS011;18955;51.224;8.482;2023-05-07T11:33:20;21.65;;;14.38;;
32505;SDS011;18955;51.224;8.482;2023-05-07T11:35:50;22.88;;;16.00;;
32505;SDS011;18955;51.224;8.482;2023-05-07T11:38:24;24.92;;;14.65;;
32505;SDS011;18955;51.224;8.482;2023-05-07T11:40:52;20.50;;;14.23;;
32505;SDS011;18955;51.224;8.482;2023-05-07T11:43:19;21.73;;;15.15;;
32505;SDS011;18955;51.224;8.482;2023-05-07T11:45:46;18.77;;;12.88;;
32505;SDS011;18955;51.224;8.482;2023-05-07T11:48:13;21.73;;;14.90;;
32505;SDS011;18955;51.224;8.482;2023-05-07T11:50:50;22.08;;;14.13;;
32505;SDS011;18955;51.224;8.482;2023-05-07T11:53:17;20.65;;;14.80;;
32505;SDS011;18955;51.224;8.482;2023-05-07T11:55:44;24.10;;;14.48;;
32505;SDS011;18955;51.224;8.482;2023-05-07T11:58:12;19.45;;;13.60;;
32505;SDS011;18955;51.224;8.482;2023-05-07T12:00:49;18.20;;;12.65;;
32505;SDS011;18955;51.224;8.482;2023-05-07T12:03:16;17.55;;;12.20;;
32505;SDS011;18955;51.224;8.482;2023-05-07T12:05:44;18.17;;;11.48;;
32505;SDS011;18955;51.224;8.482;2023-05-07T12:08:28;17.15;;;11.20;;
32505;SDS011;18955;51.224;8.482;2023-05-07T12:10:55;17.90;;;11.13;;
32505;SDS011;18955;51.224;8.482;2023-05-07T12:13:22;15.15;;;11.80;;
32505;SDS011;18955;51.224;8.482;2023-05-07T12:15:52;15.00;;;11.68;;
32505;SDS011;18955;51.224;8.482;2023-05-07T12:18:20;16.38;;;10.60;;
32505;SDS011;18955;51.224;8.482;2023-05-07T12:20:47;15.73;;;11.23;;
32505;SDS011;18955;51.224;8.482;2023-05-07T12:23:15;13.52;;;9.95;;
32505;SDS011;18955;51.224;8.482;2023-05-07T12:25:42;18.35;;;11.30;;
32505;SDS011;18955;51.224;8.482;2023-05-07T12:28:12;19.65;;;10.25;;
32505;SDS011;18955;51.224;8.482;2023-05-07T12:30:39;14.18;;;10.63;;
32505;SDS011;18955;51.224;8.482;2023-05-07T12:33:06;16.70;;;10.30;;
32505;SDS011;18955;51.224;8.482;2023-05-07T12:35:36;15.63;;;9.70;;
32505;SDS011;18955;51.224;8.482;2023-05-07T12:38:08;14.13;;;10.27;;
32505;SDS011;18955;51.224;8.482;2023-05-07T12:40:36;14.77;;;9.38;;
32505;SDS011;18955;51.224;8.482;2023-05-07T12:43:04;14.98;;;9.50;;
32505;SDS011;18955;51.224;8.482;2023-05-07T12:45:30;12.18;;;8.77;;
32505;SDS011;18955;51.224;8.482;2023-05-07T12:47:57;18.13;;;9.57;;
32505;SDS011;18955;51.224;8.482;2023-05-07T12:50:31;14.35;;;8.52;;
32505;SDS011;18955;51.224;8.482;2023-05-07T12:52:59;12.30;;;7.78;;
32505;SDS011;18955;51.224;8.482;2023-05-07T12:57:52;13.05;;;8.25;;
32505;SDS011;18955;51.224;8.482;2023-05-07T13:00:34;13.10;;;8.68;;
32505;SDS011;18955;51.224;8.482;2023-05-07T13:03:04;13.00;;;8.00;;
32505;SDS011;18955;51.224;8.482;2023-05-07T13:05:31;12.50;;;7.60;;
32505;SDS011;18955;51.224;8.482;2023-05-07T13:07:58;11.80;;;8.07;;
32505;SDS011;18955;51.224;8.482;2023-05-07T13:10:24;11.88;;;8.10;;
32505;SDS011;18955;51.224;8.482;2023-05-07T13:12:51;12.30;;;8.05;;
32505;SDS011;18955;51.224;8.482;2023-05-07T13:15:18;11.88;;;8.15;;
32505;SDS011;18955;51.224;8.482;2023-05-07T13:17:44;10.98;;;7.82;;
32505;SDS011;18955;51.224;8.482;2023-05-07T13:20:11;11.27;;;7.25;;
32505;SDS011;18955;51.224;8.482;2023-05-07T13:22:39;10.10;;;7.43;;
32505;SDS011;18955;51.224;8.482;2023-05-07T13:25:05;13.23;;;8.05;;
32505;SDS011;18955;51.224;8.482;2023-05-07T13:27:32;11.63;;;8.38;;
32505;SDS011;18955;51.224;8.482;2023-05-07T13:30:02;10.25;;;8.00;;
32505;SDS011;18955;51.224;8.482;2023-05-07T13:32:30;15.15;;;8.52;;
32505;SDS011;18955;51.224;8.482;2023-05-07T13:37:23;10.63;;;7.32;;
32505;SDS011;18955;51.224;8.482;2023-05-07T13:39:49;13.05;;;7.65;;
32505;SDS011;18955;51.224;8.482;2023-05-07T13:42:15;10.20;;;7.65;;
32505;SDS011;18955;51.224;8.482;2023-05-07T13:44:41;14.68;;;9.05;;
32505;SDS011;18955;51.224;8.482;2023-05-07T13:47:09;14.63;;;7.82;;
32505;SDS011;18955;51.224;8.482;2023-05-07T13:49:36;10.90;;;7.13;;
32505;SDS011;18955;51.224;8.482;2023-05-07T13:52:02;15.65;;;7.97;;
32505;SDS011;18955;51.224;8.482;2023-05-07T13:56:55;12.73;;;7.38;;
32505;SDS011;18955;51.224;8.482;2023-05-07T13:59:21;11.40;;;6.88;;
32505;SDS011;18955;51.224;8.482;2023-05-07T14:01:47;8.52;;;5.97;;
32505;SDS011;18955;51.224;8.482;2023-05-07T14:04:13;9.85;;;6.40;;
32505;SDS011;18955;51.224;8.482;2023-05-07T14:06:40;9.85;;;6.35;;
32505;SDS011;18955;51.224;8.482;2023-05-07T14:09:06;6.13;;;5.45;;
32505;SDS011;18955;51.224;8.482;2023-05-07T14:11:32;7.57;;;5.85;;
32505;SDS011;18955;51.224;8.482;2023-05-07T14:13:58;8.02;;;5.97;;
32505;SDS011;18955;51.224;8.482;2023-05-07T14:16:24;8.13;;;4.50;;
32505;SDS011;18955;51.224;8.482;2023-05-07T14:18:51;13.93;;;6.75;;
32505;SDS011;18955;51.224;8.482;2023-05-07T14:21:17;7.57;;;4.68;;
32505;SDS011;18955;51.224;8.482;2023-05-07T14:23:43;6.07;;;4.57;;
32505;SDS011;18955;51.224;8.482;2023-05-07T14:26:09;5.80;;;4.00;;
32505;SDS011;18955;51.224;8.482;2023-05-07T14:28:36;6.70;;;6.00;;
32505;SDS011;18955;51.224;8.482;2023-05-07T14:31:05;9.98;;;6.40;;
32505;SDS011;18955;51.224;8.482;2023-05-07T14:33:31;12.55;;;6.90;;
32505;SDS011;18955;51.224;8.482;2023-05-07T14:35:58;7.05;;;6.35;;
32505;SDS011;18955;51.224;8.482;2023-05-07T14:38:24;13.07;;;6.38;;
32505;SDS011;18955;51.224;8.482;2023-05-07T14:40:50;5.22;;;4.03;;
32505;SDS011;18955;51.224;8.482;2023-05-07T14:43:17;9.27;;;6.18;;
32505;SDS011;18955;51.224;8.482;2023-05-07T14:45:43;8.73;;;4.40;;
32505;SDS011;18955;51.224;8.482;2023-05-07T14:48:11;9.82;;;5.68;;
32505;SDS011;18955;51.224;8.482;2023-05-07T14:50:43;13.75;;;6.60;;
32505;SDS011;18955;51.224;8.482;2023-05-07T14:53:12;10.13;;;6.40;;
32505;SDS011;18955;51.224;8.482;2023-05-07T14:55:38;9.65;;;6.05;;
32505;SDS011;18955;51.224;8.482;2023-05-07T14:58:04;10.93;;;6.53;;
32505;SDS011;18955;51.224;8.482;2023-05-07T15:00:31;7.60;;;5.85;;
32505;SDS011;18955;51.224;8.482;2023-05-07T15:03:03;6.85;;;5.95;;
32505;SDS011;18955;51.224;8.482;2023-05-07T15:05:35;10.50;;;6.60;;
32505;SDS011;18955;51.224;8.482;2023-05-07T15:08:02;8.93;;;5.30;;
32505;SDS011;18955;51.224;8.482;2023-05-07T15:10:28;8.02;;;6.10;;
32505;SDS011;18955;51.224;8.482;2023-05-07T15:12:54;8.75;;;6.10;;
32505;SDS011;18955;51.224;8.482;2023-05-07T15:15:21;14.10;;;5.82;;
32505;SDS011;18955;51.224;8.482;2023-05-07T15:17:47;9.63;;;5.38;;
32505;SDS011;18955;51.224;8.482;2023-05-07T15:20:13;7.80;;;6.10;;
32505;SDS011;18955;51.224;8.482;2023-05-07T15:22:39;9.40;;;5.97;;
32505;SDS011;18955;51.224;8.482;2023-05-07T15:25:07;9.82;;;6.30;;
32505;SDS011;18955;51.224;8.482;2023-05-07T15:27:33;8.13;;;6.15;;
32505;SDS011;18955;51.224;8.482;2023-05-07T15:30:00;7.70;;;5.80;;